Terminal Aerodrome Forecast
Issued by NWS

Home | Current Version | Previous Version | Text Only | Print | Product List | Glossary On
Versions: 1 2 3 4 5 6 7 8 9 10 11 12 13 14
000
FTUS43 KBIS 250520
TAFDIK
TAF
KDIK 250520Z 2506/2606 VRB03KT P6SM SCT050 BKN100
     FM250800 03006KT P6SM VCSH BKN040
     FM251200 09009KT 5SM -RA BR OVC025
     FM252200 13008KT P6SM BKN035=

USA.gov is the U.S. government's official web portal to all federal, state and local government web resources and services.